Time;durP1;ratioP1;P1;durP2;ratioP2;P2;SDS_P1;SDS_P2;PMS_P1;PMS_P2;Temp;Humidity;BMP_temperature;BMP_pressure;BME280_temperature;BME280_humidity;BME280_pressure;Samples;Min_cycle;Max_cycle;Signal;HPM_P1;HPM_P2
2023/03/07 00:02:10;;;;;;;35.20;15.75;;;3.20;95.40;;;;;;7601767;19;20078;-76
2023/03/07 00:04:45;;;;;;;37.53;17.17;;;3.20;95.60;;;;;;7607724;19;20382;-75
2023/03/07 00:07:17;;;;;;;36.28;16.70;;;3.20;95.90;;;;;;7609139;19;20019;-75
2023/03/07 00:09:49;;;;;;;33.80;15.45;;;3.20;95.90;;;;;;7588541;19;20022;-75
2023/03/07 00:12:21;;;;;;;35.50;15.18;;;3.10;95.80;;;;;;7603164;19;20332;-77
2023/03/07 00:14:54;;;;;;;38.22;16.55;;;3.20;95.40;;;;;;7600549;19;22140;-77
2023/03/07 00:17:26;;;;;;;33.90;16.03;;;3.20;95.30;;;;;;7599515;19;20132;-77
2023/03/07 00:19:58;;;;;;;32.50;15.35;;;3.20;95.30;;;;;;7609958;19;20029;-76
2023/03/07 00:22:30;;;;;;;35.28;16.02;;;3.20;95.20;;;;;;7591781;19;20089;-77
2023/03/07 00:25:03;;;;;;;30.73;15.02;;;3.30;95.30;;;;;;7597060;19;20644;-76
2023/03/07 00:27:36;;;;;;;33.72;16.63;;;3.20;95.20;;;;;;7578782;19;21006;-77
2023/03/07 00:30:11;;;;;;;32.13;15.05;;;3.20;95.30;;;;;;7581200;19;20014;-77
2023/03/07 00:32:43;;;;;;;33.33;14.98;;;3.20;95.20;;;;;;7591175;19;20029;-77
2023/03/07 00:35:15;;;;;;;37.00;15.45;;;3.20;94.80;;;;;;7598683;19;20073;-77
2023/03/07 00:37:50;;;;;;;33.78;15.48;;;3.30;94.60;;;;;;7580864;19;20014;-77
2023/03/07 00:40:24;;;;;;;33.47;16.15;;;3.20;94.60;;;;;;7585535;19;20757;-77
2023/03/07 00:42:57;;;;;;;30.48;14.63;;;3.20;94.60;;;;;;7594170;19;20038;-77
2023/03/07 00:45:29;;;;;;;30.08;14.57;;;3.20;94.40;;;;;;7599919;19;20025;-76
2023/03/07 00:48:02;;;;;;;29.38;14.38;;;3.20;94.10;;;;;;7607434;19;20006;-77
2023/03/07 00:50:34;;;;;;;27.98;13.63;;;3.20;94.00;;;;;;7603940;19;21093;-76
2023/03/07 00:53:06;;;;;;;29.73;13.15;;;3.20;93.80;;;;;;7594031;19;20029;-77
2023/03/07 00:55:39;;;;;;;32.35;13.68;;;3.30;93.40;;;;;;7595941;19;21100;-76
2023/03/07 00:58:11;;;;;;;32.33;13.57;;;3.30;93.10;;;;;;7607436;19;20023;-75
2023/03/07 01:00:51;;;;;;;29.80;13.65;;;3.30;93.00;;;;;;7598196;19;20283;-75
2023/03/07 01:12:44;;;;;;;29.95;12.50;;;3.20;92.10;;;;;;7609377;19;20038;-76
2023/03/07 01:20:16;;;;;;;25.95;12.65;;;3.20;91.90;;;;;;7605199;19;20044;-76
2023/03/07 01:26:47;;;;;;;27.42;11.82;;;3.10;91.60;;;;;;7604839;19;20030;-76
2023/03/07 01:30:50;;;;;;;27.42;12.25;;;3.10;91.50;;;;;;7590910;19;20035;-76
2023/03/07 01:41:07;;;;;;;26.92;12.55;;;3.10;91.20;;;;;;7575746;19;20014;-76
2023/03/07 01:44:57;;;;;;;25.83;10.02;;;3.10;90.70;;;;;;7574263;19;20388;-75
2023/03/07 01:48:40;;;;;;;30.63;12.50;;;3.10;90.50;;;;;;7596659;19;20034;-78
2023/03/07 01:56:04;;;;;;;23.27;11.45;;;3.10;90.40;;;;;;7588586;19;20114;-77
2023/03/07 01:58:57;;;;;;;24.45;11.43;;;3.10;90.70;;;;;;7594990;19;20081;-77
2023/03/07 02:10:00;;;;;;;26.48;10.93;;;3.10;90.60;;;;;;7593570;19;20082;-77
2023/03/07 02:14:18;;;;;;;23.85;11.43;;;3.20;89.60;;;;;;7594828;19;20068;-78
2023/03/07 02:18:30;;;;;;;23.67;11.10;;;3.10;89.90;;;;;;7599391;19;20010;-77
2023/03/07 02:25:38;;;;;;;24.75;11.23;;;3.10;90.10;;;;;;7594881;19;20030;-76
2023/03/07 02:29:28;;;;;;;;;;;;;;;;;;;;;
2023/03/07 02:36:44;;;;;;;;;;;;;;;;;;;;;
2023/03/07 02:44:59;;;;;;;;;;;;;;;;;;;;;
2023/03/07 02:48:37;;;;;;;24.13;11.10;;;3.10;88.50;;;;;;7580201;19;20045;-77
2023/03/07 02:52:20;;;;;;;23.33;10.68;;;3.10;88.30;;;;;;7583048;19;20015;-77
2023/03/07 02:56:17;;;;;;;;;;;;;;;;;;;;;
2023/03/07 03:00:16;;;;;;;26.55;10.77;;;3.10;87.40;;;;;;7587991;19;20007;-75
2023/03/07 03:04:32;;;;;;;23.67;11.40;;;3.10;87.80;;;;;;7598635;19;21859;-77
2023/03/07 03:08:12;;;;;;;23.60;10.35;;;3.10;87.60;;;;;;7570511;19;20069;-77
2023/03/07 03:36:39;;;;;;;19.58;10.00;;;3.20;86.80;;;;;;7600342;19;20015;-76
2023/03/07 03:39:49;;;;;;;20.95;7.95;;;3.20;86.30;;;;;;7597004;19;20019;-76
2023/03/07 03:57:40;;;;;;;23.40;10.50;;;3.10;86.20;;;;;;7584814;19;20927;-80
2023/03/07 04:00:14;;;;;;;21.75;9.88;;;3.10;86.30;;;;;;7598678;19;20017;-79
2023/03/07 04:02:46;;;;;;;21.48;9.65;;;3.10;86.40;;;;;;7589644;19;20142;-79
2023/03/07 04:05:22;;;;;;;25.85;10.82;;;3.20;85.60;;;;;;7601060;19;20041;-79
2023/03/07 04:07:54;;;;;;;22.27;10.05;;;3.10;85.80;;;;;;7590730;19;20022;-79
2023/03/07 04:10:26;;;;;;;19.13;9.75;;;3.10;85.90;;;;;;7579558;19;20434;-79
2023/03/07 04:12:58;;;;;;;24.02;10.60;;;3.10;86.30;;;;;;7579104;19;20006;-79
2023/03/07 04:15:30;;;;;;;21.80;10.60;;;3.10;85.80;;;;;;7605193;19;20018;-79
2023/03/07 04:18:02;;;;;;;21.65;10.98;;;3.10;86.20;;;;;;7588920;19;20078;-80
2023/03/07 04:20:34;;;;;;;21.05;10.73;;;3.10;86.00;;;;;;7590384;19;20089;-79
2023/03/07 04:23:06;;;;;;;21.88;10.23;;;3.20;86.40;;;;;;7570869;19;21163;-79
2023/03/07 04:25:39;;;;;;;20.67;9.88;;;3.20;86.00;;;;;;7596773;19;20023;-79
2023/03/07 04:28:11;;;;;;;22.05;10.38;;;3.10;86.40;;;;;;7596710;19;20038;-79
2023/03/07 04:30:44;;;;;;;22.55;10.23;;;3.10;85.90;;;;;;7601043;19;20525;-79
2023/03/07 04:33:18;;;;;;;23.73;9.93;;;3.10;86.10;;;;;;7605837;19;20030;-80
2023/03/07 04:35:52;;;;;;;25.60;10.40;;;3.10;85.70;;;;;;7595701;19;20018;-79
2023/03/07 04:38:24;;;;;;;26.75;11.63;;;3.20;86.10;;;;;;7585668;19;20736;-80
2023/03/07 04:40:57;;;;;;;27.58;10.57;;;3.10;85.60;;;;;;7606462;19;20026;-80
2023/03/07 04:43:29;;;;;;;19.55;9.68;;;3.10;85.40;;;;;;7599094;19;20106;-80
2023/03/07 04:46:01;;;;;;;22.65;10.60;;;3.10;85.90;;;;;;7592704;19;20556;-79
2023/03/07 04:48:33;;;;;;;27.40;11.55;;;3.10;86.00;;;;;;7602609;19;20887;-80
2023/03/07 04:51:05;;;;;;;24.85;11.90;;;3.10;86.00;;;;;;7591236;19;20440;-79
2023/03/07 04:53:38;;;;;;;27.75;11.68;;;3.10;86.10;;;;;;7601730;19;20010;-79
2023/03/07 04:56:11;;;;;;;24.65;12.00;;;3.10;86.10;;;;;;7595507;19;20014;-79
2023/03/07 04:58:44;;;;;;;27.38;12.30;;;3.10;86.70;;;;;;7576888;19;20056;-80
2023/03/07 05:01:17;;;;;;;25.50;12.25;;;3.10;86.70;;;;;;7558047;19;20038;-79
2023/03/07 05:03:50;;;;;;;26.25;12.38;;;3.10;86.80;;;;;;7560082;19;20033;-80
2023/03/07 05:06:24;;;;;;;27.33;12.63;;;3.10;87.10;;;;;;7557353;19;20335;-78
2023/03/07 05:08:56;;;;;;;31.80;12.02;;;3.00;87.60;;;;;;7556960;19;20024;-78
2023/03/07 05:11:29;;;;;;;29.10;11.93;;;3.00;87.90;;;;;;7588749;19;20637;-78
2023/03/07 05:14:01;;;;;;;25.92;11.90;;;3.00;88.20;;;;;;7564745;19;20026;-78
2023/03/07 05:16:34;;;;;;;29.58;12.73;;;3.00;88.30;;;;;;7591609;19;20022;-77
2023/03/07 05:19:07;;;;;;;31.58;15.13;;;3.00;88.70;;;;;;7571935;19;20341;-79
2023/03/07 05:21:40;;;;;;;33.97;13.75;;;2.90;89.20;;;;;;7591296;19;20024;-77
2023/03/07 05:24:12;;;;;;;32.30;14.45;;;2.80;89.80;;;;;;7578573;19;20026;-77
2023/03/07 05:26:45;;;;;;;33.75;14.95;;;2.80;90.10;;;;;;7560636;19;20025;-76
2023/03/07 05:29:17;;;;;;;32.15;14.60;;;2.80;90.30;;;;;;7541534;19;20331;-77
2023/03/07 05:31:49;;;;;;;39.28;16.02;;;2.70;90.40;;;;;;7563275;19;20026;-77
2023/03/07 05:34:21;;;;;;;38.10;15.35;;;2.70;91.00;;;;;;7570734;19;20018;-78
2023/03/07 05:36:53;;;;;;;44.95;17.10;;;2.70;90.90;;;;;;7582605;19;20014;-77
2023/03/07 05:39:26;;;;;;;48.60;20.23;;;2.60;91.00;;;;;;7569562;19;20840;-77
2023/03/07 05:41:58;;;;;;;43.85;17.92;;;2.60;91.20;;;;;;7550112;19;20067;-77
2023/03/07 05:44:31;;;;;;;42.17;17.83;;;2.60;91.40;;;;;;7556422;19;20562;-77
2023/03/07 05:47:05;;;;;;;38.42;16.70;;;2.60;91.50;;;;;;7581652;19;20025;-77
2023/03/07 05:49:38;;;;;;;40.70;17.88;;;2.60;91.60;;;;;;7573465;19;20026;-77
2023/03/07 05:52:10;;;;;;;38.03;16.77;;;2.50;91.80;;;;;;7578871;19;21151;-77
2023/03/07 05:54:42;;;;;;;52.05;19.67;;;2.50;92.10;;;;;;7601211;19;20481;-77
2023/03/07 05:57:15;;;;;;;47.63;19.23;;;2.50;92.30;;;;;;7583137;19;20018;-78
2023/03/07 05:59:47;;;;;;;54.00;19.40;;;2.50;92.50;;;;;;7598116;19;20067;-78
2023/03/07 06:02:19;;;;;;;37.72;17.38;;;2.50;92.70;;;;;;7551397;19;20022;-79
2023/03/07 06:04:52;;;;;;;34.45;16.95;;;2.40;92.90;;;;;;7555222;19;20050;-79
2023/03/07 06:07:24;;;;;;;34.20;15.73;;;2.40;93.20;;;;;;7567696;19;20018;-78
2023/03/07 06:09:57;;;;;;;33.13;14.65;;;2.30;93.40;;;;;;7546807;19;20014;-78
2023/03/07 06:12:29;;;;;;;34.22;15.73;;;2.40;93.60;;;;;;7525244;19;20534;-78
2023/03/07 06:15:02;;;;;;;37.15;14.90;;;2.40;93.80;;;;;;7558440;19;20018;-78
2023/03/07 06:17:34;;;;;;;38.22;15.45;;;2.30;94.20;;;;;;7564765;19;20090;-77
2023/03/07 06:20:08;;;;;;;34.90;14.93;;;2.40;94.10;;;;;;7570666;19;20039;-77
2023/03/07 06:22:41;;;;;;;35.47;16.02;;;2.40;94.10;;;;;;7581451;19;20045;-79
2023/03/07 06:25:15;;;;;;;44.97;16.58;;;2.40;94.10;;;;;;7520541;19;20378;-78
2023/03/07 06:27:48;;;;;;;97.25;23.95;;;2.50;99.90;;;;;;7511687;19;20023;-77
2023/03/07 06:30:21;;;;;;;64.65;21.00;;;2.80;99.90;;;;;;7548635;19;20897;-78
2023/03/07 06:32:54;;;;;;;57.13;19.13;;;3.00;99.90;;;;;;7534975;19;20018;-77
2023/03/07 06:35:27;;;;;;;52.97;21.33;;;3.10;98.40;;;;;;7533761;19;20070;-78
2023/03/07 06:37:59;;;;;;;60.47;26.10;;;3.10;98.60;;;;;;7534752;19;20034;-78
2023/03/07 06:40:32;;;;;;;33.28;15.40;;;3.10;98.00;;;;;;7565517;19;20665;-78
2023/03/07 06:43:05;;;;;;;38.00;15.52;;;3.10;97.00;;;;;;7570550;19;20048;-78
2023/03/07 06:45:37;;;;;;;34.78;14.98;;;3.10;96.50;;;;;;7591938;19;20612;-77
2023/03/07 06:48:10;;;;;;;37.15;15.65;;;3.00;96.40;;;;;;7569199;19;20854;-77
2023/03/07 06:50:45;;;;;;;34.90;14.07;;;3.00;95.50;;;;;;7567697;19;20018;-78
2023/03/07 06:53:17;;;;;;;30.15;14.40;;;3.00;95.50;;;;;;7561030;19;20086;-78
2023/03/07 06:55:50;;;;;;;40.40;15.93;;;3.10;95.30;;;;;;7575512;19;20016;-78
2023/03/07 06:58:22;;;;;;;33.42;15.10;;;3.10;95.30;;;;;;7588008;19;20015;-79
2023/03/07 07:00:55;;;;;;;36.63;15.40;;;3.20;95.10;;;;;;7584175;19;20037;-78
2023/03/07 07:03:27;;;;;;;34.70;15.30;;;3.30;94.60;;;;;;7594396;19;20026;-77
2023/03/07 07:06:01;;;;;;;33.58;16.00;;;3.20;94.30;;;;;;7587446;19;20033;-78
2023/03/07 07:08:35;;;;;;;39.90;15.82;;;3.20;94.10;;;;;;7594976;19;20017;-78
2023/03/07 07:11:07;;;;;;;32.78;14.32;;;3.20;93.90;;;;;;7583412;19;20470;-77
2023/03/07 07:13:39;;;;;;;33.85;15.27;;;3.30;93.80;;;;;;7591803;19;20017;-78
2023/03/07 07:16:12;;;;;;;32.33;15.10;;;3.30;93.50;;;;;;7577966;19;20118;-78
2023/03/07 07:18:45;;;;;;;35.22;16.10;;;3.30;93.30;;;;;;7559710;19;20014;-78
2023/03/07 07:21:17;;;;;;;36.92;15.68;;;3.30;93.20;;;;;;7554564;19;20017;-78
2023/03/07 07:23:50;;;;;;;33.97;14.40;;;3.30;93.00;;;;;;7580019;19;20027;-78
2023/03/07 07:26:23;;;;;;;35.97;16.20;;;3.30;92.70;;;;;;7574013;19;20412;-78
2023/03/07 07:28:55;;;;;;;30.98;14.45;;;3.30;92.50;;;;;;7590103;19;20026;-78
2023/03/07 07:31:28;;;;;;;35.55;15.77;;;3.40;92.70;;;;;;7599999;19;20018;-78
2023/03/07 07:34:00;;;;;;;36.88;17.05;;;3.50;92.70;;;;;;7609498;19;20019;-79
2023/03/07 07:36:34;;;;;;;34.58;15.15;;;3.50;92.60;;;;;;7602010;19;20037;-78
2023/03/07 07:39:09;;;;;;;33.38;15.30;;;3.50;92.30;;;;;;7587199;19;20015;-78
2023/03/07 07:41:45;;;;;;;34.20;16.30;;;3.60;91.90;;;;;;7587446;19;20034;-78
2023/03/07 07:44:17;;;;;;;31.40;14.45;;;3.60;91.70;;;;;;7595894;19;20426;-78
2023/03/07 07:46:57;;;;;;;38.05;16.58;;;3.60;91.70;;;;;;7588946;19;20030;-77
2023/03/07 07:49:30;;;;;;;38.60;15.43;;;3.60;91.90;;;;;;7595410;19;20501;-78
2023/03/07 07:52:02;;;;;;;36.90;14.82;;;3.70;91.40;;;;;;7599750;19;20022;-78
2023/03/07 07:54:34;;;;;;;38.17;18.67;;;3.80;91.00;;;;;;7613098;19;20015;-78
2023/03/07 07:57:06;;;;;;;36.35;17.88;;;3.90;90.60;;;;;;7571280;19;20609;-78
2023/03/07 07:59:38;;;;;;;31.23;14.80;;;4.00;90.90;;;;;;7594086;19;20014;-79
2023/03/07 08:02:14;;;;;;;38.37;14.67;;;4.00;90.30;;;;;;7538418;19;20027;-78
2023/03/07 08:04:47;;;;;;;26.63;13.50;;;4.20;89.80;;;;;;7579219;19;20271;-78
2023/03/07 08:07:19;;;;;;;30.55;14.73;;;4.30;88.30;;;;;;7602446;19;20010;-77
2023/03/07 08:09:51;;;;;;;30.30;14.77;;;4.50;87.80;;;;;;7611191;19;20022;-78
2023/03/07 08:12:23;;;;;;;24.88;11.90;;;4.50;86.50;;;;;;7595494;19;21290;-78
2023/03/07 08:14:58;;;;;;;30.92;13.30;;;4.60;84.90;;;;;;7594871;19;20021;-78
2023/03/07 08:17:30;;;;;;;26.23;11.70;;;4.70;83.60;;;;;;7605873;19;20026;-79
2023/03/07 08:20:07;;;;;;;26.50;12.38;;;4.80;81.90;;;;;;7596747;19;20032;-79
2023/03/07 08:22:39;;;;;;;27.92;12.07;;;4.80;79.40;;;;;;7605404;19;20014;-78
2023/03/07 08:25:17;;;;;;;26.95;10.43;;;4.80;78.90;;;;;;7605208;19;20641;-80
2023/03/07 08:27:53;;;;;;;24.45;11.27;;;4.90;76.60;;;;;;7607666;19;20015;-79
2023/03/07 08:30:28;;;;;;;24.33;11.10;;;4.90;77.40;;;;;;7601462;19;20014;-80
2023/03/07 08:33:00;;;;;;;23.02;10.23;;;4.90;77.10;;;;;;7617801;19;20475;-78
2023/03/07 08:35:33;;;;;;;24.15;11.10;;;5.00;75.80;;;;;;7602065;19;20101;-79
2023/03/07 08:38:05;;;;;;;21.17;10.35;;;5.00;75.00;;;;;;7602357;19;20019;-80
2023/03/07 08:40:37;;;;;;;21.50;10.15;;;5.00;73.90;;;;;;7592677;19;20018;-79
2023/03/07 08:43:09;;;;;;;25.73;11.55;;;5.10;74.20;;;;;;7602276;19;20573;-80
2023/03/07 08:45:42;;;;;;;21.80;9.88;;;5.30;74.40;;;;;;7595776;19;20024;-79
2023/03/07 08:48:14;;;;;;;23.75;10.45;;;5.40;74.60;;;;;;7561912;19;20573;-80
2023/03/07 08:50:47;;;;;;;25.77;10.05;;;5.40;73.20;;;;;;7566249;19;20022;-79
2023/03/07 08:53:19;;;;;;;23.38;11.35;;;5.50;72.60;;;;;;7603572;19;20029;-79
2023/03/07 08:55:51;;;;;;;21.90;10.47;;;5.50;73.00;;;;;;7582545;19;20021;-80
2023/03/07 08:58:24;;;;;;;32.78;11.13;;;5.40;71.80;;;;;;7584224;19;20790;-81
2023/03/07 09:00:57;;;;;;;19.10;10.60;;;5.50;71.20;;;;;;7589865;19;20018;-79
2023/03/07 09:03:29;;;;;;;20.33;9.55;;;5.50;71.00;;;;;;7592342;19;20022;-82
2023/03/07 09:06:02;;;;;;;24.52;9.85;;;5.60;69.80;;;;;;7600690;19;26423;-80
2023/03/07 09:08:35;;;;;;;22.95;10.75;;;5.60;70.00;;;;;;7610949;19;20018;-80
2023/03/07 09:11:07;;;;;;;20.60;9.65;;;5.70;70.00;;;;;;7594918;19;20022;-80
2023/03/07 09:13:39;;;;;;;24.15;11.27;;;5.60;69.80;;;;;;7602033;19;20015;-80
2023/03/07 09:16:23;;;;;;;21.83;10.52;;;5.60;69.80;;;;;;7599357;19;20014;-81
2023/03/07 09:18:56;;;;;;;19.88;10.57;;;5.70;70.00;;;;;;7593475;19;20013;-82
2023/03/07 09:21:28;;;;;;;26.52;11.05;;;5.70;70.10;;;;;;7567154;19;20988;-81
2023/03/07 09:24:00;;;;;;;23.95;10.85;;;5.80;70.30;;;;;;7598544;19;20025;-84
2023/03/07 09:26:33;;;;;;;20.38;9.98;;;5.80;69.80;;;;;;7580005;19;20006;-81
2023/03/07 09:29:06;;;;;;;23.77;11.43;;;5.90;70.00;;;;;;7584787;19;20018;-80
2023/03/07 09:31:40;;;;;;;22.65;10.02;;;5.90;68.50;;;;;;7556457;19;20014;-79
2023/03/07 09:34:12;;;;;;;23.90;11.10;;;6.00;68.90;;;;;;7603238;19;20690;-80
2023/03/07 09:36:44;;;;;;;27.08;11.32;;;6.10;69.30;;;;;;7569890;19;20485;-82
2023/03/07 09:39:17;;;;;;;26.60;11.52;;;6.20;69.20;;;;;;7556541;19;20260;-80
2023/03/07 09:42:01;;;;;;;25.77;10.80;;;6.30;69.40;;;;;;7572701;19;20015;-84
2023/03/07 09:45:08;;;;;;;19.95;10.75;;;6.40;67.40;;;;;;7601402;19;20503;-79
2023/03/07 09:48:31;;;;;;;23.10;10.43;;;6.50;69.30;;;;;;7565596;19;20010;-82
2023/03/07 09:51:30;;;;;;;24.73;11.80;;;6.50;67.50;;;;;;7589846;19;20021;-80
2023/03/07 09:54:17;;;;;;;22.10;11.00;;;6.60;67.10;;;;;;7579753;19;20019;-80
2023/03/07 09:56:53;;;;;;;21.75;10.25;;;6.70;66.70;;;;;;7542894;19;20581;-80
2023/03/07 09:59:37;;;;;;;25.23;11.57;;;6.90;66.50;;;;;;7563989;19;20038;-82
2023/03/07 10:02:31;;;;;;;22.73;10.15;;;7.00;65.50;;;;;;7583881;19;20015;-81
2023/03/07 10:05:21;;;;;;;20.85;10.55;;;7.00;65.60;;;;;;7596838;19;20015;-80
2023/03/07 10:07:54;;;;;;;28.33;11.40;;;7.00;65.00;;;;;;7606098;19;20644;-83
2023/03/07 10:10:35;;;;;;;22.98;11.07;;;7.00;66.10;;;;;;7581397;19;20023;-82
2023/03/07 10:13:24;;;;;;;22.92;11.40;;;7.00;65.00;;;;;;7583970;19;20060;-80
2023/03/07 10:16:14;;;;;;;27.50;11.80;;;6.90;65.20;;;;;;7604694;19;20054;-79
2023/03/07 10:19:22;;;;;;;25.42;11.40;;;7.10;65.20;;;;;;7604623;19;20026;-81
2023/03/07 10:22:06;;;;;;;24.45;11.95;;;7.20;64.80;;;;;;7597552;19;20106;-80
2023/03/07 10:24:59;;;;;;;18.25;9.15;;;7.20;64.70;;;;;;7597754;19;20015;-80
2023/03/07 10:27:31;;;;;;;21.35;10.75;;;7.30;63.40;;;;;;7605444;19;20023;-81
2023/03/07 10:30:17;;;;;;;25.80;11.50;;;7.20;63.40;;;;;;7603230;19;20018;-81
2023/03/07 10:32:54;;;;;;;24.90;11.93;;;7.30;64.90;;;;;;7607819;19;20015;-79
2023/03/07 10:35:40;;;;;;;26.00;10.80;;;7.30;64.10;;;;;;7600291;19;20696;-80
2023/03/07 10:38:27;;;;;;;29.83;12.23;;;7.30;64.30;;;;;;7603127;19;21150;-81
2023/03/07 10:41:10;;;;;;;27.38;10.93;;;7.50;63.10;;;;;;7576667;19;20019;-80
2023/03/07 10:43:44;;;;;;;24.80;12.82;;;7.60;63.80;;;;;;7596133;19;20140;-80
2023/03/07 10:46:22;;;;;;;27.02;11.73;;;7.70;62.50;;;;;;7604419;19;20047;-82
2023/03/07 10:49:07;;;;;;;25.10;12.07;;;7.70;62.40;;;;;;7612877;19;20042;-79
2023/03/07 10:52:05;;;;;;;26.90;11.90;;;7.70;61.60;;;;;;7601592;19;20074;-79
2023/03/07 10:54:38;;;;;;;21.73;10.40;;;7.90;62.80;;;;;;7618623;19;20139;-80
2023/03/07 10:57:15;;;;;;;22.73;10.68;;;8.10;62.40;;;;;;7618408;19;20021;-80
2023/03/07 10:59:48;;;;;;;28.08;11.57;;;8.30;61.60;;;;;;7609905;19;20021;-81
2023/03/07 11:02:24;;;;;;;25.27;11.82;;;8.30;62.40;;;;;;7627552;19;20043;-79
2023/03/07 11:04:57;;;;;;;20.80;11.07;;;8.30;61.60;;;;;;7601115;19;20015;-80
2023/03/07 11:07:33;;;;;;;24.77;11.85;;;8.40;59.60;;;;;;7608278;19;20093;-78
2023/03/07 11:10:31;;;;;;;21.70;9.70;;;8.40;60.20;;;;;;7629474;19;20035;-79
2023/03/07 11:13:17;;;;;;;22.92;12.05;;;8.40;58.60;;;;;;7616940;19;20014;-79
2023/03/07 11:15:51;;;;;;;21.80;10.63;;;8.30;59.20;;;;;;7622524;19;20056;-80
2023/03/07 11:18:41;;;;;;;22.20;11.52;;;8.30;59.60;;;;;;7610109;19;20006;-81
2023/03/07 11:21:34;;;;;;;21.05;11.40;;;8.40;59.80;;;;;;7624917;19;20054;-80
2023/03/07 11:24:27;;;;;;;21.00;11.82;;;8.50;59.10;;;;;;7582597;19;20444;-80
2023/03/07 11:26:59;;;;;;;21.98;11.43;;;8.60;60.20;;;;;;7609743;19;20022;-81
2023/03/07 11:29:33;;;;;;;24.40;11.63;;;8.70;59.80;;;;;;7610615;19;20125;-80
2023/03/07 11:32:19;;;;;;;21.42;11.90;;;8.70;59.50;;;;;;7599049;19;20920;-81
2023/03/07 11:35:05;;;;;;;24.13;12.18;;;8.80;58.80;;;;;;7575450;19;20017;-81
2023/03/07 11:37:48;;;;;;;26.63;12.82;;;8.90;57.80;;;;;;7606640;19;20035;-80
2023/03/07 11:40:52;;;;;;;26.90;11.15;;;8.80;58.70;;;;;;7584931;19;20019;-81
2023/03/07 11:43:48;;;;;;;22.15;10.38;;;8.90;59.00;;;;;;7599771;19;20023;-79
2023/03/07 11:46:31;;;;;;;24.92;11.32;;;9.80;57.50;;;;;;7610451;19;20022;-81
2023/03/07 11:49:03;;;;;;;22.20;10.55;;;11.20;53.00;;;;;;7618150;19;20019;-81
2023/03/07 11:51:44;;;;;;;17.27;8.13;;;12.30;52.10;;;;;;7612317;19;21222;-80
2023/03/07 11:54:30;;;;;;;23.35;11.13;;;12.40;48.40;;;;;;7618804;19;20014;-80
2023/03/07 11:57:17;;;;;;;21.60;12.35;;;11.80;50.10;;;;;;7621656;19;20010;-82
2023/03/07 12:00:23;;;;;;;21.77;10.75;;;12.00;48.70;;;;;;7605259;19;20088;-78
2023/03/07 12:03:17;;;;;;;21.38;11.60;;;12.70;49.00;;;;;;7613541;19;20013;-80
2023/03/07 12:06:19;;;;;;;25.38;11.35;;;13.40;48.00;;;;;;7600638;19;20014;-81
2023/03/07 12:09:15;;;;;;;19.67;11.02;;;13.70;47.30;;;;;;7587084;19;25710;-79
2023/03/07 12:11:58;;;;;;;19.10;10.30;;;14.80;46.20;;;;;;7556068;19;20036;-80
2023/03/07 12:15:20;;;;;;;19.30;11.45;;;13.90;45.60;;;;;;7570622;19;20014;-82
2023/03/07 12:18:23;;;;;;;21.95;12.10;;;13.80;46.20;;;;;;7601629;19;20011;-80
2023/03/07 12:21:27;;;;;;;26.98;12.50;;;14.90;45.00;;;;;;7587777;19;20224;-81
2023/03/07 12:24:16;;;;;;;25.10;11.60;;;15.10;42.20;;;;;;7584915;19;20018;-81
2023/03/07 12:26:56;;;;;;;22.08;12.10;;;15.30;42.90;;;;;;7592769;19;20087;-80
2023/03/07 12:29:35;;;;;;;20.85;12.32;;;14.90;43.30;;;;;;7582418;19;20023;-80
2023/03/07 12:32:17;;;;;;;18.55;10.82;;;15.50;43.10;;;;;;7557204;19;20042;-80
2023/03/07 12:35:16;;;;;;;21.40;12.25;;;14.50;44.20;;;;;;7554412;19;20026;-79
2023/03/07 12:37:59;;;;;;;25.20;12.32;;;13.40;46.60;;;;;;7546146;19;20018;-78
2023/03/07 12:40:46;;;;;;;25.27;12.77;;;12.80;48.60;;;;;;7518839;19;21601;-80
2023/03/07 12:43:25;;;;;;;22.33;12.55;;;12.40;49.00;;;;;;7558165;19;20370;-82
2023/03/07 12:46:10;;;;;;;31.05;12.25;;;12.10;50.00;;;;;;7556901;19;20435;-82
2023/03/07 12:48:48;;;;;;;30.95;15.75;;;11.60;50.30;;;;;;7534244;19;20021;-77
2023/03/07 12:51:30;;;;;;;24.52;13.18;;;11.50;51.80;;;;;;7560186;19;20026;-80
2023/03/07 12:54:13;;;;;;;21.50;12.52;;;11.90;51.40;;;;;;7554883;19;21292;-80
2023/03/07 12:56:53;;;;;;;24.02;12.95;;;13.10;47.70;;;;;;7570026;19;21181;-82
2023/03/07 12:59:26;;;;;;;24.52;13.10;;;13.00;47.80;;;;;;7532195;19;20017;-80
2023/03/07 13:02:05;;;;;;;21.98;12.80;;;12.90;48.70;;;;;;7582438;19;20010;-82
2023/03/07 13:04:41;;;;;;;23.65;12.38;;;13.90;45.40;;;;;;7587727;19;20086;-83
2023/03/07 13:07:24;;;;;;;22.63;13.50;;;14.90;44.70;;;;;;7578495;19;21569;-81
2023/03/07 13:09:59;;;;;;;22.83;11.32;;;15.80;42.60;;;;;;7591389;19;20018;-82
2023/03/07 13:12:36;;;;;;;23.20;13.07;;;15.50;42.50;;;;;;7582706;19;20475;-81
2023/03/07 13:15:17;;;;;;;21.98;10.70;;;15.60;42.20;;;;;;7567412;19;20098;-79
2023/03/07 13:17:49;;;;;;;22.27;12.13;;;16.40;41.10;;;;;;7562264;19;20018;-82
2023/03/07 13:20:27;;;;;;;21.00;12.45;;;16.40;40.60;;;;;;7581313;19;20090;-80
2023/03/07 13:23:12;;;;;;;17.80;9.00;;;16.50;40.30;;;;;;7601673;19;20014;-83
2023/03/07 13:25:54;;;;;;;19.45;10.98;;;16.30;40.50;;;;;;7552140;19;20086;-81
2023/03/07 13:28:35;;;;;;;23.05;13.10;;;15.70;41.20;;;;;;7532473;19;20720;-82
2023/03/07 13:31:14;;;;;;;20.25;11.52;;;16.10;40.70;;;;;;7589149;19;20056;-82
2023/03/07 13:33:47;;;;;;;21.83;13.18;;;16.40;41.20;;;;;;7610521;19;20018;-81
2023/03/07 13:36:34;;;;;;;22.60;12.70;;;16.60;41.20;;;;;;7599540;19;20010;-81
2023/03/07 13:39:38;;;;;;;22.48;12.60;;;16.30;40.40;;;;;;7605998;19;20010;-81
2023/03/07 13:42:45;;;;;;;20.37;11.97;;;16.50;40.60;;;;;;7590905;19;20021;-81
2023/03/07 13:45:36;;;;;;;21.23;12.30;;;16.20;41.00;;;;;;7603320;19;20014;-80
2023/03/07 13:48:19;;;;;;;20.67;11.50;;;15.90;40.80;;;;;;7627505;19;20457;-81
2023/03/07 13:50:51;;;;;;;24.90;12.57;;;15.70;42.10;;;;;;7618385;19;20018;-81
2023/03/07 13:53:26;;;;;;;23.35;12.77;;;15.60;42.60;;;;;;7599526;19;20022;-82
2023/03/07 13:56:07;;;;;;;23.77;12.18;;;14.90;43.40;;;;;;7574746;19;20057;-79
2023/03/07 13:58:51;;;;;;;20.45;11.75;;;14.70;43.50;;;;;;7585792;19;20047;-79
2023/03/07 14:01:39;;;;;;;22.47;12.73;;;13.90;44.30;;;;;;7587115;19;20058;-81
2023/03/07 14:04:14;;;;;;;23.35;12.45;;;14.10;44.50;;;;;;7586978;19;20018;-79
2023/03/07 14:06:55;;;;;;;22.13;12.40;;;13.90;44.90;;;;;;7602912;19;20015;-81
2023/03/07 14:09:38;;;;;;;25.48;12.75;;;13.50;45.50;;;;;;7583522;19;20018;-79
2023/03/07 14:12:26;;;;;;;21.67;11.97;;;12.80;47.10;;;;;;7580834;19;20018;-79
2023/03/07 14:15:07;;;;;;;18.52;11.38;;;13.10;47.70;;;;;;7583022;19;20278;-81
2023/03/07 14:17:42;;;;;;;27.77;11.35;;;13.40;47.90;;;;;;7612604;19;20010;-79
2023/03/07 14:20:23;;;;;;;19.42;11.57;;;14.30;46.40;;;;;;7600635;19;20002;-83
2023/03/07 14:23:10;;;;;;;22.27;11.70;;;13.90;45.30;;;;;;7593883;19;20018;-80
2023/03/07 14:25:48;;;;;;;18.05;10.90;;;13.60;45.90;;;;;;7589907;19;20026;-80
2023/03/07 14:28:26;;;;;;;22.35;11.85;;;13.60;46.40;;;;;;7600344;19;20039;-80
2023/03/07 14:31:03;;;;;;;23.42;11.13;;;13.90;45.60;;;;;;7577417;19;21360;-82
2023/03/07 14:33:38;;;;;;;19.92;11.48;;;14.30;45.10;;;;;;7572486;19;20057;-80
2023/03/07 14:36:22;;;;;;;20.75;12.25;;;13.90;46.00;;;;;;7591030;19;20084;-80
2023/03/07 14:38:57;;;;;;;20.60;11.88;;;13.70;46.50;;;;;;7569473;19;23807;-80
2023/03/07 14:42:03;;;;;;;22.88;11.75;;;13.10;47.10;;;;;;7582783;19;20024;-81
2023/03/07 14:45:10;;;;;;;22.48;11.60;;;12.70;47.10;;;;;;7569137;19;20082;-80
2023/03/07 14:48:02;;;;;;;16.92;9.80;;;12.10;48.40;;;;;;7573218;19;21152;-79
2023/03/07 14:50:38;;;;;;;20.77;9.45;;;11.30;49.90;;;;;;7541964;19;20018;-80
2023/03/07 14:53:14;;;;;;;21.65;11.55;;;11.20;50.30;;;;;;7584507;19;20018;-81
2023/03/07 14:55:49;;;;;;;22.23;11.38;;;10.70;52.00;;;;;;7571214;19;20025;-79
2023/03/07 14:58:25;;;;;;;22.85;10.85;;;10.30;51.70;;;;;;7590590;19;20051;-79
2023/03/07 15:01:05;;;;;;;22.98;10.88;;;10.30;53.40;;;;;;7594661;19;20680;-80
2023/03/07 15:03:48;;;;;;;20.58;11.75;;;10.60;52.30;;;;;;7592602;19;21996;-80
2023/03/07 15:06:24;;;;;;;18.63;10.73;;;10.40;52.00;;;;;;7551126;19;20018;-79
2023/03/07 15:08:59;;;;;;;24.15;11.80;;;10.80;52.00;;;;;;7587144;19;20018;-80
2023/03/07 15:11:36;;;;;;;24.52;12.18;;;10.70;52.20;;;;;;7582526;19;20019;-80
2023/03/07 15:14:18;;;;;;;21.13;10.38;;;10.50;52.40;;;;;;7604054;19;20078;-80
2023/03/07 15:16:56;;;;;;;21.42;11.00;;;10.30;51.90;;;;;;7572770;19;20014;-79
2023/03/07 15:19:42;;;;;;;22.42;10.90;;;10.20;51.80;;;;;;7577366;19;20021;-80
2023/03/07 15:22:27;;;;;;;23.73;11.27;;;10.30;51.60;;;;;;7568846;19;21374;-79
2023/03/07 15:25:00;;;;;;;21.42;10.30;;;10.00;52.20;;;;;;7574882;19;20022;-80
2023/03/07 15:27:32;;;;;;;23.10;10.55;;;9.70;52.90;;;;;;7581214;19;20033;-80